sensor_id;sensor_type;location;lat;lon;timestamp;temperature;humidity
64670;DHT22;51080;51.690;5.174;2022-11-20T00:03:43;0.00;79.90
64670;DHT22;51080;51.690;5.174;2022-11-20T00:09:34;-0.10;80.10
64670;DHT22;51080;51.690;5.174;2022-11-20T00:15:24;-0.10;80.10
64670;DHT22;51080;51.690;5.174;2022-11-20T00:21:19;-0.10;80.40
64670;DHT22;51080;51.690;5.174;2022-11-20T00:27:10;-0.10;80.40
64670;DHT22;51080;51.690;5.174;2022-11-20T00:33:00;-0.20;80.50
64670;DHT22;51080;51.690;5.174;2022-11-20T00:38:52;-0.20;80.50
64670;DHT22;51080;51.690;5.174;2022-11-20T00:44:42;-0.30;80.50
64670;DHT22;51080;51.690;5.174;2022-11-20T00:50:34;-0.30;80.70
64670;DHT22;51080;51.690;5.174;2022-11-20T00:56:27;-0.30;80.90
64670;DHT22;51080;51.690;5.174;2022-11-20T01:02:17;-0.40;80.90
64670;DHT22;51080;51.690;5.174;2022-11-20T01:08:08;-0.40;80.80
64670;DHT22;51080;51.690;5.174;2022-11-20T01:14:00;-0.50;80.90
64670;DHT22;51080;51.690;5.174;2022-11-20T01:19:50;-0.50;80.30
64670;DHT22;51080;51.690;5.174;2022-11-20T01:25:41;-0.60;81.20
64670;DHT22;51080;51.690;5.174;2022-11-20T01:37:34;-0.70;81.10
64670;DHT22;51080;51.690;5.174;2022-11-20T01:43:27;-0.70;81.20
64670;DHT22;51080;51.690;5.174;2022-11-20T01:55:34;-0.70;81.20
64670;DHT22;51080;51.690;5.174;2022-11-20T02:01:24;-0.70;81.50
64670;DHT22;51080;51.690;5.174;2022-11-20T02:07:17;-0.60;81.30
64670;DHT22;51080;51.690;5.174;2022-11-20T02:13:08;-0.50;81.00
64670;DHT22;51080;51.690;5.174;2022-11-20T02:19:01;-0.50;80.80
64670;DHT22;51080;51.690;5.174;2022-11-20T02:24:51;-0.40;80.60
64670;DHT22;51080;51.690;5.174;2022-11-20T02:30:40;-0.40;80.40
64670;DHT22;51080;51.690;5.174;2022-11-20T02:36:32;-0.40;80.50
64670;DHT22;51080;51.690;5.174;2022-11-20T02:42:21;-0.50;80.30
64670;DHT22;51080;51.690;5.174;2022-11-20T02:48:10;-0.50;80.50
64670;DHT22;51080;51.690;5.174;2022-11-20T02:54:00;-0.50;80.40
64670;DHT22;51080;51.690;5.174;2022-11-20T02:59:48;-0.50;80.50
64670;DHT22;51080;51.690;5.174;2022-11-20T03:05:36;-0.60;80.50
64670;DHT22;51080;51.690;5.174;2022-11-20T03:11:25;-0.60;80.30
64670;DHT22;51080;51.690;5.174;2022-11-20T03:17:13;-0.70;80.70
64670;DHT22;51080;51.690;5.174;2022-11-20T03:23:01;-0.70;80.80
64670;DHT22;51080;51.690;5.174;2022-11-20T03:28:57;-0.70;80.90
64670;DHT22;51080;51.690;5.174;2022-11-20T03:34:44;-0.80;81.10
64670;DHT22;51080;51.690;5.174;2022-11-20T03:40:34;-0.80;81.10
64670;DHT22;51080;51.690;5.174;2022-11-20T03:46:23;-0.80;81.10
64670;DHT22;51080;51.690;5.174;2022-11-20T03:52:12;-0.90;81.30
64670;DHT22;51080;51.690;5.174;2022-11-20T03:57:59;-1.00;81.30
64670;DHT22;51080;51.690;5.174;2022-11-20T04:03:47;-1.00;81.30
64670;DHT22;51080;51.690;5.174;2022-11-20T04:09:35;-1.00;81.40
64670;DHT22;51080;51.690;5.174;2022-11-20T04:15:22;-1.10;81.50
64670;DHT22;51080;51.690;5.174;2022-11-20T04:21:12;-1.10;81.50
64670;DHT22;51080;51.690;5.174;2022-11-20T04:27:01;-1.20;81.30
64670;DHT22;51080;51.690;5.174;2022-11-20T04:32:52;-1.20;81.60
64670;DHT22;51080;51.690;5.174;2022-11-20T04:38:45;-1.20;81.60
64670;DHT22;51080;51.690;5.174;2022-11-20T04:44:38;-1.20;81.70
64670;DHT22;51080;51.690;5.174;2022-11-20T06:07:17;-1.40;80.60
64670;DHT22;51080;51.690;5.174;2022-11-20T06:13:24;-1.40;80.60
64670;DHT22;51080;51.690;5.174;2022-11-20T06:19:27;-1.40;81.20
64670;DHT22;51080;51.690;5.174;2022-11-20T06:25:33;-1.40;81.20
64670;DHT22;51080;51.690;5.174;2022-11-20T06:31:37;-1.40;82.00
64670;DHT22;51080;51.690;5.174;2022-11-20T06:37:42;-1.50;81.50
64670;DHT22;51080;51.690;5.174;2022-11-20T06:43:47;-1.40;81.50
64670;DHT22;51080;51.690;5.174;2022-11-20T06:49:50;-1.40;81.60
64670;DHT22;51080;51.690;5.174;2022-11-20T06:55:34;-1.40;81.80
64670;DHT22;51080;51.690;5.174;2022-11-20T07:01:18;-1.30;81.80
64670;DHT22;51080;51.690;5.174;2022-11-20T07:07:02;-1.40;81.80
64670;DHT22;51080;51.690;5.174;2022-11-20T07:12:49;-1.40;82.00
64670;DHT22;51080;51.690;5.174;2022-11-20T07:18:33;-1.40;82.20
64670;DHT22;51080;51.690;5.174;2022-11-20T07:24:17;-1.40;82.40
64670;DHT22;51080;51.690;5.174;2022-11-20T07:30:01;-1.40;82.60
64670;DHT22;51080;51.690;5.174;2022-11-20T07:35:44;-1.30;82.80
64670;DHT22;51080;51.690;5.174;2022-11-20T07:41:28;-1.30;82.50
64670;DHT22;51080;51.690;5.174;2022-11-20T07:47:12;-1.20;82.60
64670;DHT22;51080;51.690;5.174;2022-11-20T07:53:05;-1.10;82.80
64670;DHT22;51080;51.690;5.174;2022-11-20T07:58:49;-1.00;82.80
64670;DHT22;51080;51.690;5.174;2022-11-20T08:04:32;-0.90;82.90
64670;DHT22;51080;51.690;5.174;2022-11-20T08:10:16;-0.80;82.60
64670;DHT22;51080;51.690;5.174;2022-11-20T08:16:01;-0.70;83.00
64670;DHT22;51080;51.690;5.174;2022-11-20T08:21:45;-0.60;82.90
64670;DHT22;51080;51.690;5.174;2022-11-20T08:27:29;-0.60;82.90
64670;DHT22;51080;51.690;5.174;2022-11-20T08:33:14;-0.50;82.70
64670;DHT22;51080;51.690;5.174;2022-11-20T08:38:58;-0.30;82.70
64670;DHT22;51080;51.690;5.174;2022-11-20T08:44:41;-0.20;82.80
64670;DHT22;51080;51.690;5.174;2022-11-20T08:50:25;-0.10;82.80
64670;DHT22;51080;51.690;5.174;2022-11-20T08:56:09;0.00;82.80
64670;DHT22;51080;51.690;5.174;2022-11-20T09:01:53;0.20;82.70
64670;DHT22;51080;51.690;5.174;2022-11-20T09:07:37;0.30;82.60
64670;DHT22;51080;51.690;5.174;2022-11-20T09:13:21;0.40;82.80
64670;DHT22;51080;51.690;5.174;2022-11-20T09:19:05;0.50;82.60
64670;DHT22;51080;51.690;5.174;2022-11-20T09:24:49;0.60;82.60
64670;DHT22;51080;51.690;5.174;2022-11-20T09:31:19;0.70;82.70
64670;DHT22;51080;51.690;5.174;2022-11-20T09:37:05;0.80;83.20
64670;DHT22;51080;51.690;5.174;2022-11-20T09:55:24;1.10;83.00
64670;DHT22;51080;51.690;5.174;2022-11-20T10:01:12;1.20;83.20
64670;DHT22;51080;51.690;5.174;2022-11-20T10:25:38;1.50;84.00
64670;DHT22;51080;51.690;5.174;2022-11-20T10:31:37;1.60;84.60
64670;DHT22;51080;51.690;5.174;2022-11-20T10:37:29;1.70;84.50
64670;DHT22;51080;51.690;5.174;2022-11-20T10:43:21;1.80;84.60
64670;DHT22;51080;51.690;5.174;2022-11-20T10:49:15;1.90;85.20
64670;DHT22;51080;51.690;5.174;2022-11-20T11:01:41;2.20;85.10
64670;DHT22;51080;51.690;5.174;2022-11-20T11:07:35;2.30;84.60
64670;DHT22;51080;51.690;5.174;2022-11-20T11:13:26;2.50;84.50
64670;DHT22;51080;51.690;5.174;2022-11-20T11:19:13;2.60;84.50
64670;DHT22;51080;51.690;5.174;2022-11-20T11:24:57;2.70;84.30
64670;DHT22;51080;51.690;5.174;2022-11-20T11:30:42;2.80;84.10
64670;DHT22;51080;51.690;5.174;2022-11-20T11:36:26;2.90;83.90
64670;DHT22;51080;51.690;5.174;2022-11-20T11:42:13;3.00;83.70
64670;DHT22;51080;51.690;5.174;2022-11-20T11:48:30;3.00;83.90
64670;DHT22;51080;51.690;5.174;2022-11-20T11:54:26;3.20;84.30
64670;DHT22;51080;51.690;5.174;2022-11-20T12:00:17;3.20;83.80
64670;DHT22;51080;51.690;5.174;2022-11-20T12:06:09;3.30;84.20
64670;DHT22;51080;51.690;5.174;2022-11-20T12:12:04;3.40;84.40
64670;DHT22;51080;51.690;5.174;2022-11-20T12:17:46;3.50;84.50
64670;DHT22;51080;51.690;5.174;2022-11-20T12:54:50;3.90;83.90
64670;DHT22;51080;51.690;5.174;2022-11-20T13:00:42;4.00;84.00
64670;DHT22;51080;51.690;5.174;2022-11-20T13:06:27;4.10;84.10
64670;DHT22;51080;51.690;5.174;2022-11-20T13:18:17;4.30;84.20
64670;DHT22;51080;51.690;5.174;2022-11-20T13:24:23;4.30;84.20
64670;DHT22;51080;51.690;5.174;2022-11-20T13:30:17;4.40;84.00
64670;DHT22;51080;51.690;5.174;2022-11-20T13:36:21;4.50;84.60
64670;DHT22;51080;51.690;5.174;2022-11-20T13:48:15;4.50;85.40
64670;DHT22;51080;51.690;5.174;2022-11-20T14:06:12;4.70;86.00
64670;DHT22;51080;51.690;5.174;2022-11-20T14:11:57;4.70;86.10
64670;DHT22;51080;51.690;5.174;2022-11-20T14:17:43;4.70;86.30
64670;DHT22;51080;51.690;5.174;2022-11-20T14:24:06;4.60;88.80
64670;DHT22;51080;51.690;5.174;2022-11-20T14:29:52;4.50;89.80
64670;DHT22;51080;51.690;5.174;2022-11-20T14:35:44;4.50;90.40
64670;DHT22;51080;51.690;5.174;2022-11-20T14:41:28;4.40;93.30
64670;DHT22;51080;51.690;5.174;2022-11-20T14:47:13;4.30;95.50
64670;DHT22;51080;51.690;5.174;2022-11-20T14:53:00;4.20;96.20
64670;DHT22;51080;51.690;5.174;2022-11-20T14:58:43;4.30;96.60
64670;DHT22;51080;51.690;5.174;2022-11-20T15:04:32;4.20;97.00
64670;DHT22;51080;51.690;5.174;2022-11-20T15:10:22;4.20;97.20
64670;DHT22;51080;51.690;5.174;2022-11-20T15:16:22;4.20;97.30
64670;DHT22;51080;51.690;5.174;2022-11-20T15:22:12;4.30;97.40
64670;DHT22;51080;51.690;5.174;2022-11-20T15:27:57;4.30;97.30
64670;DHT22;51080;51.690;5.174;2022-11-20T15:33:40;4.30;97.10
64670;DHT22;51080;51.690;5.174;2022-11-20T15:39:24;4.40;96.80
64670;DHT22;51080;51.690;5.174;2022-11-20T15:45:09;4.40;96.50
64670;DHT22;51080;51.690;5.174;2022-11-20T15:51:05;4.40;96.30
64670;DHT22;51080;51.690;5.174;2022-11-20T15:56:52;4.40;96.10
64670;DHT22;51080;51.690;5.174;2022-11-20T16:02:35;4.50;95.90
64670;DHT22;51080;51.690;5.174;2022-11-20T16:08:19;4.50;95.80
64670;DHT22;51080;51.690;5.174;2022-11-20T16:14:05;4.50;95.80
64670;DHT22;51080;51.690;5.174;2022-11-20T16:20:19;4.60;95.60
64670;DHT22;51080;51.690;5.174;2022-11-20T16:26:11;4.70;95.40
64670;DHT22;51080;51.690;5.174;2022-11-20T16:31:56;4.70;95.10
64670;DHT22;51080;51.690;5.174;2022-11-20T16:37:40;4.80;95.00
64670;DHT22;51080;51.690;5.174;2022-11-20T16:43:24;4.90;95.00
64670;DHT22;51080;51.690;5.174;2022-11-20T16:49:38;4.90;95.30
64670;DHT22;51080;51.690;5.174;2022-11-20T16:55:21;5.00;95.00
64670;DHT22;51080;51.690;5.174;2022-11-20T17:01:06;5.10;94.40
64670;DHT22;51080;51.690;5.174;2022-11-20T17:06:51;5.10;94.80
64670;DHT22;51080;51.690;5.174;2022-11-20T17:12:34;5.20;94.90
64670;DHT22;51080;51.690;5.174;2022-11-20T17:18:40;5.30;95.00
64670;DHT22;51080;51.690;5.174;2022-11-20T17:30:38;5.50;94.80
64670;DHT22;51080;51.690;5.174;2022-11-20T17:36:42;5.60;94.30
64670;DHT22;51080;51.690;5.174;2022-11-20T17:42:47;5.90;96.30
64670;DHT22;51080;51.690;5.174;2022-11-20T17:48:51;6.00;95.40
64670;DHT22;51080;51.690;5.174;2022-11-20T17:54:55;6.00;94.20
64670;DHT22;51080;51.690;5.174;2022-11-20T18:01:06;6.10;94.60
64670;DHT22;51080;51.690;5.174;2022-11-20T18:13:20;6.20;95.60
64670;DHT22;51080;51.690;5.174;2022-11-20T18:19:28;6.30;95.80
64670;DHT22;51080;51.690;5.174;2022-11-20T18:25:32;6.30;95.40
64670;DHT22;51080;51.690;5.174;2022-11-20T18:31:21;6.30;95.10
64670;DHT22;51080;51.690;5.174;2022-11-20T18:37:23;6.30;94.90
64670;DHT22;51080;51.690;5.174;2022-11-20T18:43:29;6.20;94.50
64670;DHT22;51080;51.690;5.174;2022-11-20T18:49:36;6.10;94.10
64670;DHT22;51080;51.690;5.174;2022-11-20T18:55:41;6.00;93.70
64670;DHT22;51080;51.690;5.174;2022-11-20T19:01:45;5.90;93.50
64670;DHT22;51080;51.690;5.174;2022-11-20T19:07:49;5.90;93.30
64670;DHT22;51080;51.690;5.174;2022-11-20T19:13:52;5.80;92.90
64670;DHT22;51080;51.690;5.174;2022-11-20T19:19:56;5.80;92.90
64670;DHT22;51080;51.690;5.174;2022-11-20T19:25:59;5.70;92.90
64670;DHT22;51080;51.690;5.174;2022-11-20T19:32:04;5.70;92.80
64670;DHT22;51080;51.690;5.174;2022-11-20T19:38:08;5.70;92.50
64670;DHT22;51080;51.690;5.174;2022-11-20T19:44:13;5.70;92.50
64670;DHT22;51080;51.690;5.174;2022-11-20T19:50:17;5.60;92.50
64670;DHT22;51080;51.690;5.174;2022-11-20T19:56:10;5.50;92.50
64670;DHT22;51080;51.690;5.174;2022-11-20T20:02:14;5.50;92.50
64670;DHT22;51080;51.690;5.174;2022-11-20T20:08:18;5.40;92.30
64670;DHT22;51080;51.690;5.174;2022-11-20T20:14:22;5.40;92.20
64670;DHT22;51080;51.690;5.174;2022-11-20T20:20:25;5.40;92.30
64670;DHT22;51080;51.690;5.174;2022-11-20T20:26:30;5.40;92.20
64670;DHT22;51080;51.690;5.174;2022-11-20T20:32:34;5.50;91.70
64670;DHT22;51080;51.690;5.174;2022-11-20T20:38:37;5.50;91.60
64670;DHT22;51080;51.690;5.174;2022-11-20T20:44:40;5.50;91.60
64670;DHT22;51080;51.690;5.174;2022-11-20T20:51:00;5.50;91.50
64670;DHT22;51080;51.690;5.174;2022-11-20T20:57:03;5.40;91.60
64670;DHT22;51080;51.690;5.174;2022-11-20T21:03:07;5.40;91.80
64670;DHT22;51080;51.690;5.174;2022-11-20T21:09:11;5.40;91.70
64670;DHT22;51080;51.690;5.174;2022-11-20T21:15:15;5.40;91.70
64670;DHT22;51080;51.690;5.174;2022-11-20T21:21:19;5.40;91.60
64670;DHT22;51080;51.690;5.174;2022-11-20T21:27:23;5.40;91.50
64670;DHT22;51080;51.690;5.174;2022-11-20T21:33:26;5.40;91.30
64670;DHT22;51080;51.690;5.174;2022-11-20T21:39:29;5.40;91.30
64670;DHT22;51080;51.690;5.174;2022-11-20T21:51:37;5.30;91.30
64670;DHT22;51080;51.690;5.174;2022-11-20T21:57:41;5.30;91.30
